sensor_id;sensor_type;location;lat;lon;timestamp;P1;durP1;ratioP1;P2;durP2;ratioP2
7523;SDS011;3803;51.666;7.630;2023-09-12T00:00:00;4.72;;;3.75;;
7523;SDS011;3803;51.666;7.630;2023-09-12T00:00:21;5.10;;;3.90;;
7523;SDS011;3803;51.666;7.630;2023-09-12T00:00:43;5.05;;;4.00;;
7523;SDS011;3803;51.666;7.630;2023-09-12T00:01:04;5.80;;;4.13;;
7523;SDS011;3803;51.666;7.630;2023-09-12T00:01:26;5.30;;;3.90;;
7523;SDS011;3803;51.666;7.630;2023-09-12T00:01:46;4.90;;;3.57;;
7523;SDS011;3803;51.666;7.630;2023-09-12T00:02:07;5.00;;;3.80;;
7523;SDS011;3803;51.666;7.630;2023-09-12T00:02:29;5.32;;;3.83;;
7523;SDS011;3803;51.666;7.630;2023-09-12T00:02:50;6.57;;;4.07;;
7523;SDS011;3803;51.666;7.630;2023-09-12T00:03:11;6.20;;;4.00;;
7523;SDS011;3803;51.666;7.630;2023-09-12T00:03:32;5.68;;;4.10;;
7523;SDS011;3803;51.666;7.630;2023-09-12T00:03:54;4.80;;;3.72;;
7523;SDS011;3803;51.666;7.630;2023-09-12T00:04:15;4.00;;;3.47;;
7523;SDS011;3803;51.666;7.630;2023-09-12T00:04:35;4.57;;;3.58;;
7523;SDS011;3803;51.666;7.630;2023-09-12T00:04:56;4.80;;;3.70;;
7523;SDS011;3803;51.666;7.630;2023-09-12T00:05:17;6.05;;;3.75;;
7523;SDS011;3803;51.666;7.630;2023-09-12T00:05:38;6.40;;;3.85;;
7523;SDS011;3803;51.666;7.630;2023-09-12T00:06:00;6.55;;;3.80;;
7523;SDS011;3803;51.666;7.630;2023-09-12T00:06:22;4.85;;;3.47;;
7523;SDS011;3803;51.666;7.630;2023-09-12T00:06:42;4.80;;;3.30;;
7523;SDS011;3803;51.666;7.630;2023-09-12T00:07:03;4.30;;;3.05;;
7523;SDS011;3803;51.666;7.630;2023-09-12T00:07:24;4.50;;;3.45;;
7523;SDS011;3803;51.666;7.630;2023-09-12T00:07:45;5.35;;;3.75;;
7523;SDS011;3803;51.666;7.630;2023-09-12T00:08:06;6.55;;;4.00;;
7523;SDS011;3803;51.666;7.630;2023-09-12T00:08:27;6.68;;;3.90;;
7523;SDS011;3803;51.666;7.630;2023-09-12T00:08:47;6.00;;;3.90;;
7523;SDS011;3803;51.666;7.630;2023-09-12T00:09:08;5.60;;;4.18;;
7523;SDS011;3803;51.666;7.630;2023-09-12T00:09:29;5.28;;;3.90;;
7523;SDS011;3803;51.666;7.630;2023-09-12T00:09:50;5.40;;;4.10;;
7523;SDS011;3803;51.666;7.630;2023-09-12T00:10:10;5.13;;;3.92;;
7523;SDS011;3803;51.666;7.630;2023-09-12T00:10:31;7.75;;;4.70;;
7523;SDS011;3803;51.666;7.630;2023-09-12T00:10:59;7.40;;;4.20;;
7523;SDS011;3803;51.666;7.630;2023-09-12T00:11:21;6.93;;;3.65;;
7523;SDS011;3803;51.666;7.630;2023-09-12T00:11:45;4.70;;;3.10;;
7523;SDS011;3803;51.666;7.630;2023-09-12T00:12:06;4.95;;;3.30;;
7523;SDS011;3803;51.666;7.630;2023-09-12T00:12:28;4.38;;;3.20;;
7523;SDS011;3803;51.666;7.630;2023-09-12T00:12:49;4.60;;;3.60;;
7523;SDS011;3803;51.666;7.630;2023-09-12T00:13:10;4.78;;;3.80;;
7523;SDS011;3803;51.666;7.630;2023-09-12T00:13:31;5.20;;;3.60;;
7523;SDS011;3803;51.666;7.630;2023-09-12T00:13:53;5.28;;;3.40;;
7523;SDS011;3803;51.666;7.630;2023-09-12T00:14:15;5.10;;;3.20;;
7523;SDS011;3803;51.666;7.630;2023-09-12T00:14:36;5.00;;;3.53;;
7523;SDS011;3803;51.666;7.630;2023-09-12T00:14:57;4.70;;;3.50;;
7523;SDS011;3803;51.666;7.630;2023-09-12T00:15:18;4.63;;;3.70;;
7523;SDS011;3803;51.666;7.630;2023-09-12T00:15:40;5.03;;;3.75;;
7523;SDS011;3803;51.666;7.630;2023-09-12T00:16:01;5.17;;;4.00;;
7523;SDS011;3803;51.666;7.630;2023-09-12T00:16:21;5.75;;;4.10;;
7523;SDS011;3803;51.666;7.630;2023-09-12T00:16:42;5.82;;;4.03;;
7523;SDS011;3803;51.666;7.630;2023-09-12T00:17:03;5.78;;;3.90;;
7523;SDS011;3803;51.666;7.630;2023-09-12T00:17:23;5.30;;;3.70;;
7523;SDS011;3803;51.666;7.630;2023-09-12T00:17:44;6.03;;;3.83;;
7523;SDS011;3803;51.666;7.630;2023-09-12T00:18:05;6.68;;;4.00;;
7523;SDS011;3803;51.666;7.630;2023-09-12T00:18:26;6.13;;;4.03;;
7523;SDS011;3803;51.666;7.630;2023-09-12T00:18:47;4.72;;;3.90;;
7523;SDS011;3803;51.666;7.630;2023-09-12T00:19:07;4.87;;;3.80;;
7523;SDS011;3803;51.666;7.630;2023-09-12T00:19:28;5.22;;;3.78;;
7523;SDS011;3803;51.666;7.630;2023-09-12T00:19:49;5.65;;;3.95;;
7523;SDS011;3803;51.666;7.630;2023-09-12T00:20:10;5.53;;;3.87;;
7523;SDS011;3803;51.666;7.630;2023-09-12T00:20:31;6.40;;;3.95;;
7523;SDS011;3803;51.666;7.630;2023-09-12T00:20:52;6.20;;;4.00;;
7523;SDS011;3803;51.666;7.630;2023-09-12T00:21:13;8.35;;;4.20;;
7523;SDS011;3803;51.666;7.630;2023-09-12T00:21:34;8.00;;;4.38;;
7523;SDS011;3803;51.666;7.630;2023-09-12T00:21:55;10.25;;;4.80;;
7523;SDS011;3803;51.666;7.630;2023-09-12T00:22:15;8.53;;;4.67;;
7523;SDS011;3803;51.666;7.630;2023-09-12T00:22:36;7.90;;;4.40;;
7523;SDS011;3803;51.666;7.630;2023-09-12T00:22:57;5.53;;;4.00;;
7523;SDS011;3803;51.666;7.630;2023-09-12T00:23:19;5.72;;;4.38;;
7523;SDS011;3803;51.666;7.630;2023-09-12T00:23:42;6.47;;;4.63;;
7523;SDS011;3803;51.666;7.630;2023-09-12T00:24:03;7.25;;;4.63;;
7523;SDS011;3803;51.666;7.630;2023-09-12T00:24:24;6.07;;;4.25;;
7523;SDS011;3803;51.666;7.630;2023-09-12T00:24:45;5.57;;;4.05;;
7523;SDS011;3803;51.666;7.630;2023-09-12T00:25:06;5.40;;;4.00;;
7523;SDS011;3803;51.666;7.630;2023-09-12T00:25:27;7.05;;;4.30;;
7523;SDS011;3803;51.666;7.630;2023-09-12T00:25:48;7.07;;;4.37;;
7523;SDS011;3803;51.666;7.630;2023-09-12T00:26:11;6.88;;;4.15;;
7523;SDS011;3803;51.666;7.630;2023-09-12T00:26:32;9.02;;;4.32;;
7523;SDS011;3803;51.666;7.630;2023-09-12T00:26:53;8.57;;;4.40;;
7523;SDS011;3803;51.666;7.630;2023-09-12T00:27:14;8.68;;;4.72;;
7523;SDS011;3803;51.666;7.630;2023-09-12T00:27:35;7.30;;;4.90;;
7523;SDS011;3803;51.666;7.630;2023-09-12T00:27:56;7.57;;;5.20;;
7523;SDS011;3803;51.666;7.630;2023-09-12T00:28:16;7.20;;;5.20;;
7523;SDS011;3803;51.666;7.630;2023-09-12T00:28:37;6.38;;;5.10;;
7523;SDS011;3803;51.666;7.630;2023-09-12T00:28:59;6.20;;;4.93;;
7523;SDS011;3803;51.666;7.630;2023-09-12T00:29:19;6.60;;;5.10;;
7523;SDS011;3803;51.666;7.630;2023-09-12T00:29:40;7.28;;;5.03;;
7523;SDS011;3803;51.666;7.630;2023-09-12T00:30:01;7.70;;;5.00;;
7523;SDS011;3803;51.666;7.630;2023-09-12T00:30:22;6.43;;;4.60;;
7523;SDS011;3803;51.666;7.630;2023-09-12T00:30:43;6.07;;;4.67;;
7523;SDS011;3803;51.666;7.630;2023-09-12T00:31:04;6.60;;;4.68;;
7523;SDS011;3803;51.666;7.630;2023-09-12T00:31:25;8.25;;;4.78;;
7523;SDS011;3803;51.666;7.630;2023-09-12T00:31:45;7.93;;;4.40;;
7523;SDS011;3803;51.666;7.630;2023-09-12T00:32:06;10.10;;;4.40;;
7523;SDS011;3803;51.666;7.630;2023-09-12T00:32:27;7.90;;;4.30;;
7523;SDS011;3803;51.666;7.630;2023-09-12T00:32:48;8.45;;;4.20;;
7523;SDS011;3803;51.666;7.630;2023-09-12T00:33:10;6.82;;;4.28;;
7523;SDS011;3803;51.666;7.630;2023-09-12T00:33:30;8.00;;;4.67;;
7523;SDS011;3803;51.666;7.630;2023-09-12T00:33:51;8.57;;;5.10;;
7523;SDS011;3803;51.666;7.630;2023-09-12T00:34:15;9.05;;;5.20;;
7523;SDS011;3803;51.666;7.630;2023-09-12T00:34:37;8.55;;;5.15;;
7523;SDS011;3803;51.666;7.630;2023-09-12T00:34:58;7.70;;;4.80;;
7523;SDS011;3803;51.666;7.630;2023-09-12T00:35:18;6.63;;;4.80;;
7523;SDS011;3803;51.666;7.630;2023-09-12T00:35:39;5.82;;;4.70;;
7523;SDS011;3803;51.666;7.630;2023-09-12T00:35:59;6.40;;;4.60;;
7523;SDS011;3803;51.666;7.630;2023-09-12T00:36:23;7.45;;;5.05;;
7523;SDS011;3803;51.666;7.630;2023-09-12T00:36:44;7.47;;;5.07;;
7523;SDS011;3803;51.666;7.630;2023-09-12T00:37:04;7.28;;;5.15;;
7523;SDS011;3803;51.666;7.630;2023-09-12T00:37:25;6.50;;;4.90;;
7523;SDS011;3803;51.666;7.630;2023-09-12T00:37:46;6.53;;;4.93;;
7523;SDS011;3803;51.666;7.630;2023-09-12T00:38:08;7.77;;;4.90;;
7523;SDS011;3803;51.666;7.630;2023-09-12T00:38:29;8.38;;;4.72;;
7523;SDS011;3803;51.666;7.630;2023-09-12T00:38:50;7.47;;;4.75;;
7523;SDS011;3803;51.666;7.630;2023-09-12T00:39:12;7.30;;;4.70;;
7523;SDS011;3803;51.666;7.630;2023-09-12T00:39:33;7.40;;;4.75;;
7523;SDS011;3803;51.666;7.630;2023-09-12T00:39:53;7.55;;;4.65;;
7523;SDS011;3803;51.666;7.630;2023-09-12T00:40:14;7.43;;;4.70;;
7523;SDS011;3803;51.666;7.630;2023-09-12T00:40:35;7.25;;;5.00;;
7523;SDS011;3803;51.666;7.630;2023-09-12T00:40:55;6.72;;;5.20;;
7523;SDS011;3803;51.666;7.630;2023-09-12T00:41:16;5.90;;;4.90;;
7523;SDS011;3803;51.666;7.630;2023-09-12T00:41:37;6.22;;;4.55;;
7523;SDS011;3803;51.666;7.630;2023-09-12T00:41:57;6.20;;;4.40;;
7523;SDS011;3803;51.666;7.630;2023-09-12T00:42:18;6.35;;;4.60;;
7523;SDS011;3803;51.666;7.630;2023-09-12T00:42:39;5.90;;;5.00;;
7523;SDS011;3803;51.666;7.630;2023-09-12T00:43:01;5.70;;;4.90;;
7523;SDS011;3803;51.666;7.630;2023-09-12T00:43:22;5.90;;;4.80;;
7523;SDS011;3803;51.666;7.630;2023-09-12T00:43:42;6.07;;;4.37;;
7523;SDS011;3803;51.666;7.630;2023-09-12T00:44:03;6.18;;;4.55;;
7523;SDS011;3803;51.666;7.630;2023-09-12T00:44:24;6.88;;;4.88;;
7523;SDS011;3803;51.666;7.630;2023-09-12T00:44:45;13.82;;;5.00;;
7523;SDS011;3803;51.666;7.630;2023-09-12T00:45:05;13.70;;;4.90;;
7523;SDS011;3803;51.666;7.630;2023-09-12T00:45:27;13.82;;;4.97;;
7523;SDS011;3803;51.666;7.630;2023-09-12T00:45:47;6.03;;;4.60;;
7523;SDS011;3803;51.666;7.630;2023-09-12T00:46:08;5.77;;;4.40;;
7523;SDS011;3803;51.666;7.630;2023-09-12T00:46:29;4.97;;;4.25;;
7523;SDS011;3803;51.666;7.630;2023-09-12T00:46:51;5.72;;;4.75;;
7523;SDS011;3803;51.666;7.630;2023-09-12T00:47:14;6.95;;;5.10;;
7523;SDS011;3803;51.666;7.630;2023-09-12T00:47:35;8.00;;;5.47;;
7523;SDS011;3803;51.666;7.630;2023-09-12T00:47:57;7.35;;;5.20;;
7523;SDS011;3803;51.666;7.630;2023-09-12T00:48:25;6.47;;;4.78;;
7523;SDS011;3803;51.666;7.630;2023-09-12T00:48:46;6.15;;;4.60;;
7523;SDS011;3803;51.666;7.630;2023-09-12T00:49:09;6.40;;;4.78;;
7523;SDS011;3803;51.666;7.630;2023-09-12T00:49:30;7.07;;;5.10;;
7523;SDS011;3803;51.666;7.630;2023-09-12T00:49:52;8.00;;;5.10;;
7523;SDS011;3803;51.666;7.630;2023-09-12T00:50:14;9.32;;;5.75;;
7523;SDS011;3803;51.666;7.630;2023-09-12T00:50:36;9.48;;;5.65;;
7523;SDS011;3803;51.666;7.630;2023-09-12T00:50:59;7.85;;;5.68;;
7523;SDS011;3803;51.666;7.630;2023-09-12T00:51:20;7.20;;;5.30;;
7523;SDS011;3803;51.666;7.630;2023-09-12T00:51:47;8.07;;;5.22;;
7523;SDS011;3803;51.666;7.630;2023-09-12T00:52:09;7.38;;;4.75;;
7523;SDS011;3803;51.666;7.630;2023-09-12T00:52:32;7.47;;;4.85;;
7523;SDS011;3803;51.666;7.630;2023-09-12T00:52:55;7.50;;;5.00;;
7523;SDS011;3803;51.666;7.630;2023-09-12T00:53:17;7.85;;;5.60;;
7523;SDS011;3803;51.666;7.630;2023-09-12T00:53:40;7.00;;;5.60;;
7523;SDS011;3803;51.666;7.630;2023-09-12T00:54:01;7.22;;;5.78;;
7523;SDS011;3803;51.666;7.630;2023-09-12T00:54:22;7.30;;;5.60;;
7523;SDS011;3803;51.666;7.630;2023-09-12T00:54:43;6.80;;;5.50;;
7523;SDS011;3803;51.666;7.630;2023-09-12T00:55:04;6.60;;;5.63;;
7523;SDS011;3803;51.666;7.630;2023-09-12T00:55:26;6.10;;;5.40;;
7523;SDS011;3803;51.666;7.630;2023-09-12T00:55:50;6.40;;;5.40;;
7523;SDS011;3803;51.666;7.630;2023-09-12T00:56:16;7.00;;;5.30;;
7523;SDS011;3803;51.666;7.630;2023-09-12T00:56:37;7.47;;;5.57;;
7523;SDS011;3803;51.666;7.630;2023-09-12T00:56:58;6.38;;;5.30;;
7523;SDS011;3803;51.666;7.630;2023-09-12T00:57:19;7.80;;;5.10;;
7523;SDS011;3803;51.666;7.630;2023-09-12T00:57:41;8.13;;;5.10;;
7523;SDS011;3803;51.666;7.630;2023-09-12T00:58:02;8.68;;;5.85;;
7523;SDS011;3803;51.666;7.630;2023-09-12T00:58:23;8.35;;;6.28;;
7523;SDS011;3803;51.666;7.630;2023-09-12T00:58:45;8.73;;;6.38;;
7523;SDS011;3803;51.666;7.630;2023-09-12T00:59:06;8.52;;;6.15;;
7523;SDS011;3803;51.666;7.630;2023-09-12T00:59:27;9.77;;;6.95;;
7523;SDS011;3803;51.666;7.630;2023-09-12T00:59:49;9.35;;;7.47;;
7523;SDS011;3803;51.666;7.630;2023-09-12T01:00:11;8.18;;;6.93;;
7523;SDS011;3803;51.666;7.630;2023-09-12T01:00:33;6.82;;;6.13;;
7523;SDS011;3803;51.666;7.630;2023-09-12T01:00:54;7.05;;;6.35;;
7523;SDS011;3803;51.666;7.630;2023-09-12T01:01:57;8.05;;;5.78;;
7523;SDS011;3803;51.666;7.630;2023-09-12T01:02:19;8.90;;;6.30;;
7523;SDS011;3803;51.666;7.630;2023-09-12T01:02:41;8.65;;;6.20;;
7523;SDS011;3803;51.666;7.630;2023-09-12T01:03:04;9.73;;;6.50;;
7523;SDS011;3803;51.666;7.630;2023-09-12T01:03:25;8.75;;;6.55;;
7523;SDS011;3803;51.666;7.630;2023-09-12T01:03:48;9.38;;;6.70;;
7523;SDS011;3803;51.666;7.630;2023-09-12T01:04:09;14.55;;;6.53;;
7523;SDS011;3803;51.666;7.630;2023-09-12T01:04:31;14.02;;;6.50;;
7523;SDS011;3803;51.666;7.630;2023-09-12T01:04:53;14.60;;;6.57;;
7523;SDS011;3803;51.666;7.630;2023-09-12T01:05:14;9.88;;;6.53;;
7523;SDS011;3803;51.666;7.630;2023-09-12T01:05:35;10.07;;;6.90;;
7523;SDS011;3803;51.666;7.630;2023-09-12T01:05:57;9.77;;;7.18;;
7523;SDS011;3803;51.666;7.630;2023-09-12T01:06:19;8.52;;;6.32;;
7523;SDS011;3803;51.666;7.630;2023-09-12T01:06:44;7.80;;;6.60;;
7523;SDS011;3803;51.666;7.630;2023-09-12T01:07:05;8.02;;;6.47;;
7523;SDS011;3803;51.666;7.630;2023-09-12T01:07:26;8.68;;;6.78;;
7523;SDS011;3803;51.666;7.630;2023-09-12T01:07:46;7.60;;;6.07;;
7523;SDS011;3803;51.666;7.630;2023-09-12T01:08:07;7.35;;;6.30;;
7523;SDS011;3803;51.666;7.630;2023-09-12T01:08:29;7.78;;;6.70;;
7523;SDS011;3803;51.666;7.630;2023-09-12T01:08:50;7.70;;;6.70;;
7523;SDS011;3803;51.666;7.630;2023-09-12T01:09:12;8.48;;;7.05;;
7523;SDS011;3803;51.666;7.630;2023-09-12T01:09:33;8.55;;;6.90;;
7523;SDS011;3803;51.666;7.630;2023-09-12T01:09:54;9.55;;;7.15;;
7523;SDS011;3803;51.666;7.630;2023-09-12T01:10:15;8.35;;;6.60;;
7523;SDS011;3803;51.666;7.630;2023-09-12T01:10:36;7.88;;;6.60;;
7523;SDS011;3803;51.666;7.630;2023-09-12T01:10:57;7.50;;;6.47;;
7523;SDS011;3803;51.666;7.630;2023-09-12T01:11:18;7.78;;;6.70;;
7523;SDS011;3803;51.666;7.630;2023-09-12T01:11:41;8.82;;;6.65;;
7523;SDS011;3803;51.666;7.630;2023-09-12T01:12:02;9.00;;;6.63;;
7523;SDS011;3803;51.666;7.630;2023-09-12T01:12:23;11.13;;;6.93;;
7523;SDS011;3803;51.666;7.630;2023-09-12T01:12:44;10.40;;;7.05;;
7523;SDS011;3803;51.666;7.630;2023-09-12T01:13:05;9.73;;;6.90;;
7523;SDS011;3803;51.666;7.630;2023-09-12T01:13:26;8.75;;;6.55;;
7523;SDS011;3803;51.666;7.630;2023-09-12T01:13:47;9.00;;;6.22;;
7523;SDS011;3803;51.666;7.630;2023-09-12T01:14:07;7.63;;;6.40;;
7523;SDS011;3803;51.666;7.630;2023-09-12T01:14:29;8.82;;;6.30;;
7523;SDS011;3803;51.666;7.630;2023-09-12T01:14:50;8.25;;;6.00;;
7523;SDS011;3803;51.666;7.630;2023-09-12T01:15:11;8.03;;;5.90;;
7523;SDS011;3803;51.666;7.630;2023-09-12T01:15:34;7.32;;;6.30;;
7523;SDS011;3803;51.666;7.630;2023-09-12T01:15:55;7.57;;;6.40;;
7523;SDS011;3803;51.666;7.630;2023-09-12T01:16:16;7.47;;;6.33;;
7523;SDS011;3803;51.666;7.630;2023-09-12T01:16:36;7.32;;;6.13;;
7523;SDS011;3803;51.666;7.630;2023-09-12T01:16:58;8.63;;;6.65;;
7523;SDS011;3803;51.666;7.630;2023-09-12T01:17:21;8.70;;;6.88;;
7523;SDS011;3803;51.666;7.630;2023-09-12T01:17:43;8.75;;;6.82;;
7523;SDS011;3803;51.666;7.630;2023-09-12T01:18:05;9.00;;;7.20;;
7523;SDS011;3803;51.666;7.630;2023-09-12T01:18:25;9.52;;;7.10;;
7523;SDS011;3803;51.666;7.630;2023-09-12T01:18:46;10.00;;;6.95;;
7523;SDS011;3803;51.666;7.630;2023-09-12T01:19:07;9.68;;;6.40;;
7523;SDS011;3803;51.666;7.630;2023-09-12T01:19:30;9.40;;;6.50;;
7523;SDS011;3803;51.666;7.630;2023-09-12T01:19:50;8.77;;;6.50;;
7523;SDS011;3803;51.666;7.630;2023-09-12T01:20:14;8.45;;;6.57;;
7523;SDS011;3803;51.666;7.630;2023-09-12T01:20:39;8.65;;;6.68;;
7523;SDS011;3803;51.666;7.630;2023-09-12T01:26:17;9.45;;;6.80;;
7523;SDS011;3803;51.666;7.630;2023-09-12T01:27:47;9.40;;;6.80;;
7523;SDS011;3803;51.666;7.630;2023-09-12T01:28:11;8.95;;;6.57;;
7523;SDS011;3803;51.666;7.630;2023-09-12T01:28:34;8.60;;;6.82;;
7523;SDS011;3803;51.666;7.630;2023-09-12T01:28:58;8.82;;;7.00;;
7523;SDS011;3803;51.666;7.630;2023-09-12T01:29:20;8.48;;;6.93;;
7523;SDS011;3803;51.666;7.630;2023-09-12T01:29:43;7.95;;;6.75;;
7523;SDS011;3803;51.666;7.630;2023-09-12T01:30:07;7.50;;;6.30;;
7523;SDS011;3803;51.666;7.630;2023-09-12T01:30:30;7.88;;;6.40;;
7523;SDS011;3803;51.666;7.630;2023-09-12T01:30:53;7.70;;;6.80;;
7523;SDS011;3803;51.666;7.630;2023-09-12T01:31:15;11.00;;;7.35;;
7523;SDS011;3803;51.666;7.630;2023-09-12T01:31:38;11.52;;;7.60;;
7523;SDS011;3803;51.666;7.630;2023-09-12T01:32:00;14.55;;;8.20;;
7523;SDS011;3803;51.666;7.630;2023-09-12T01:32:23;11.05;;;7.78;;
7523;SDS011;3803;51.666;7.630;2023-09-12T01:32:43;10.77;;;7.72;;
7523;SDS011;3803;51.666;7.630;2023-09-12T01:33:05;9.18;;;7.40;;
7523;SDS011;3803;51.666;7.630;2023-09-12T01:33:26;9.77;;;7.90;;
7523;SDS011;3803;51.666;7.630;2023-09-12T01:33:48;9.20;;;7.78;;
7523;SDS011;3803;51.666;7.630;2023-09-12T01:34:09;9.07;;;8.07;;
7523;SDS011;3803;51.666;7.630;2023-09-12T01:34:31;9.20;;;8.30;;
7523;SDS011;3803;51.666;7.630;2023-09-12T01:34:52;9.10;;;8.18;;
7523;SDS011;3803;51.666;7.630;2023-09-12T01:35:13;9.40;;;8.40;;
7523;SDS011;3803;51.666;7.630;2023-09-12T01:35:33;10.00;;;8.53;;
7523;SDS011;3803;51.666;7.630;2023-09-12T01:35:54;10.50;;;8.57;;
7523;SDS011;3803;51.666;7.630;2023-09-12T01:36:15;13.70;;;8.40;;
7523;SDS011;3803;51.666;7.630;2023-09-12T01:36:36;14.70;;;8.63;;
7523;SDS011;3803;51.666;7.630;2023-09-12T01:36:57;13.00;;;9.48;;
7523;SDS011;3803;51.666;7.630;2023-09-12T01:37:18;13.10;;;9.83;;
7523;SDS011;3803;51.666;7.630;2023-09-12T01:37:39;12.05;;;9.85;;
7523;SDS011;3803;51.666;7.630;2023-09-12T01:38:00;10.98;;;9.13;;
7523;SDS011;3803;51.666;7.630;2023-09-12T01:38:21;10.85;;;9.50;;
7523;SDS011;3803;51.666;7.630;2023-09-12T01:38:42;10.60;;;9.00;;
7523;SDS011;3803;51.666;7.630;2023-09-12T01:39:03;11.82;;;9.40;;
7523;SDS011;3803;51.666;7.630;2023-09-12T01:39:25;11.55;;;9.15;;
7523;SDS011;3803;51.666;7.630;2023-09-12T01:39:46;12.30;;;9.30;;
7523;SDS011;3803;51.666;7.630;2023-09-12T01:40:07;14.07;;;8.82;;
7523;SDS011;3803;51.666;7.630;2023-09-12T01:40:33;19.38;;;9.02;;
7523;SDS011;3803;51.666;7.630;2023-09-12T01:40:59;14.73;;;8.02;;
7523;SDS011;3803;51.666;7.630;2023-09-12T01:41:21;9.45;;;7.60;;
7523;SDS011;3803;51.666;7.630;2023-09-12T01:41:42;9.77;;;7.90;;
7523;SDS011;3803;51.666;7.630;2023-09-12T01:42:06;10.35;;;8.52;;
7523;SDS011;3803;51.666;7.630;2023-09-12T01:42:36;10.45;;;8.50;;
7523;SDS011;3803;51.666;7.630;2023-09-12T01:42:58;11.98;;;9.00;;
7523;SDS011;3803;51.666;7.630;2023-09-12T01:43:21;12.20;;;9.18;;
7523;SDS011;3803;51.666;7.630;2023-09-12T01:43:44;12.02;;;9.05;;
7523;SDS011;3803;51.666;7.630;2023-09-12T01:44:05;10.77;;;9.18;;
7523;SDS011;3803;51.666;7.630;2023-09-12T01:44:29;10.57;;;8.98;;
7523;SDS011;3803;51.666;7.630;2023-09-12T01:44:54;9.75;;;8.75;;
7523;SDS011;3803;51.666;7.630;2023-09-12T01:45:17;9.40;;;8.40;;
7523;SDS011;3803;51.666;7.630;2023-09-12T01:45:39;10.00;;;8.50;;
7523;SDS011;3803;51.666;7.630;2023-09-12T01:45:59;10.90;;;8.65;;
7523;SDS011;3803;51.666;7.630;2023-09-12T01:46:21;12.20;;;9.30;;
7523;SDS011;3803;51.666;7.630;2023-09-12T01:46:44;12.50;;;10.00;;
7523;SDS011;3803;51.666;7.630;2023-09-12T01:47:06;11.40;;;9.65;;
7523;SDS011;3803;51.666;7.630;2023-09-12T01:47:28;10.52;;;9.27;;
7523;SDS011;3803;51.666;7.630;2023-09-12T01:47:49;10.40;;;8.48;;
7523;SDS011;3803;51.666;7.630;2023-09-12T01:48:10;11.10;;;8.73;;
7523;SDS011;3803;51.666;7.630;2023-09-12T01:48:34;11.80;;;8.95;;
7523;SDS011;3803;51.666;7.630;2023-09-12T01:48:57;10.80;;;9.20;;
7523;SDS011;3803;51.666;7.630;2023-09-12T01:49:19;11.27;;;9.57;;
7523;SDS011;3803;51.666;7.630;2023-09-12T01:49:45;10.95;;;9.80;;
7523;SDS011;3803;51.666;7.630;2023-09-12T01:50:09;21.65;;;9.95;;
7523;SDS011;3803;51.666;7.630;2023-09-12T01:50:33;22.60;;;9.60;;
7523;SDS011;3803;51.666;7.630;2023-09-12T01:50:55;23.35;;;9.82;;
7523;SDS011;3803;51.666;7.630;2023-09-12T01:51:17;15.02;;;10.00;;
7523;SDS011;3803;51.666;7.630;2023-09-12T01:51:39;14.80;;;10.70;;
7523;SDS011;3803;51.666;7.630;2023-09-12T01:52:00;13.20;;;10.70;;
7523;SDS011;3803;51.666;7.630;2023-09-12T01:52:22;12.15;;;10.88;;
7523;SDS011;3803;51.666;7.630;2023-09-12T01:52:44;11.98;;;10.65;;
7523;SDS011;3803;51.666;7.630;2023-09-12T01:53:06;13.20;;;10.90;;
7523;SDS011;3803;51.666;7.630;2023-09-12T01:53:26;13.45;;;11.15;;
7523;SDS011;3803;51.666;7.630;2023-09-12T01:53:48;13.88;;;11.50;;
7523;SDS011;3803;51.666;7.630;2023-09-12T01:54:11;13.38;;;11.20;;
7523;SDS011;3803;51.666;7.630;2023-09-12T01:54:32;13.10;;;10.80;;
7523;SDS011;3803;51.666;7.630;2023-09-12T01:54:54;12.20;;;10.13;;
7523;SDS011;3803;51.666;7.630;2023-09-12T01:55:16;13.73;;;10.50;;
7523;SDS011;3803;51.666;7.630;2023-09-12T01:55:38;15.10;;;10.73;;
7523;SDS011;3803;51.666;7.630;2023-09-12T01:55:59;15.35;;;10.98;;
7523;SDS011;3803;51.666;7.630;2023-09-12T01:56:20;14.85;;;11.23;;
7523;SDS011;3803;51.666;7.630;2023-09-12T01:56:42;14.38;;;11.10;;
7523;SDS011;3803;51.666;7.630;2023-09-12T01:57:04;15.10;;;11.38;;
7523;SDS011;3803;51.666;7.630;2023-09-12T01:57:25;15.15;;;11.85;;
7523;SDS011;3803;51.666;7.630;2023-09-12T01:57:46;15.03;;;12.23;;
7523;SDS011;3803;51.666;7.630;2023-09-12T01:58:07;17.08;;;12.65;;
7523;SDS011;3803;51.666;7.630;2023-09-12T01:58:29;17.30;;;13.18;;
7523;SDS011;3803;51.666;7.630;2023-09-12T01:58:51;15.80;;;13.10;;
7523;SDS011;3803;51.666;7.630;2023-09-12T01:59:12;15.37;;;13.40;;
7523;SDS011;3803;51.666;7.630;2023-09-12T01:59:33;15.35;;;13.10;;
7523;SDS011;3803;51.666;7.630;2023-09-12T01:59:54;15.60;;;13.85;;
7523;SDS011;3803;51.666;7.630;2023-09-12T02:00:17;15.93;;;13.95;;
7523;SDS011;3803;51.666;7.630;2023-09-12T02:00:39;17.98;;;14.32;;
7523;SDS011;3803;51.666;7.630;2023-09-12T02:01:00;20.00;;;15.15;;
7523;SDS011;3803;51.666;7.630;2023-09-12T02:01:21;17.17;;;14.20;;
7523;SDS011;3803;51.666;7.630;2023-09-12T02:01:42;19.00;;;14.70;;
7523;SDS011;3803;51.666;7.630;2023-09-12T02:02:04;21.20;;;15.23;;
7523;SDS011;3803;51.666;7.630;2023-09-12T02:02:25;20.98;;;15.15;;
7523;SDS011;3803;51.666;7.630;2023-09-12T02:02:46;17.92;;;14.90;;
7523;SDS011;3803;51.666;7.630;2023-09-12T02:03:06;17.35;;;14.55;;
7523;SDS011;3803;51.666;7.630;2023-09-12T02:03:27;18.70;;;15.40;;
7523;SDS011;3803;51.666;7.630;2023-09-12T02:03:48;21.37;;;15.70;;
7523;SDS011;3803;51.666;7.630;2023-09-12T02:04:08;20.45;;;15.35;;
7523;SDS011;3803;51.666;7.630;2023-09-12T02:04:29;18.05;;;15.68;;
7523;SDS011;3803;51.666;7.630;2023-09-12T02:04:58;17.10;;;15.37;;
7523;SDS011;3803;51.666;7.630;2023-09-12T02:06:27;18.30;;;14.35;;
7523;SDS011;3803;51.666;7.630;2023-09-12T02:06:48;17.88;;;14.35;;
7523;SDS011;3803;51.666;7.630;2023-09-12T02:07:09;20.88;;;15.07;;
7523;SDS011;3803;51.666;7.630;2023-09-12T02:07:31;19.88;;;14.80;;
7523;SDS011;3803;51.666;7.630;2023-09-12T02:07:57;18.00;;;14.57;;
7523;SDS011;3803;51.666;7.630;2023-09-12T02:08:20;17.08;;;14.82;;
7523;SDS011;3803;51.666;7.630;2023-09-12T02:08:41;17.40;;;15.00;;
7523;SDS011;3803;51.666;7.630;2023-09-12T02:09:03;17.88;;;14.70;;
7523;SDS011;3803;51.666;7.630;2023-09-12T02:09:24;15.55;;;13.95;;
7523;SDS011;3803;51.666;7.630;2023-09-12T02:09:45;15.50;;;13.90;;
7523;SDS011;3803;51.666;7.630;2023-09-12T02:10:05;16.10;;;14.40;;
7523;SDS011;3803;51.666;7.630;2023-09-12T02:10:27;17.80;;;14.30;;
7523;SDS011;3803;51.666;7.630;2023-09-12T02:10:47;17.23;;;13.82;;
7523;SDS011;3803;51.666;7.630;2023-09-12T02:11:08;18.42;;;13.95;;
7523;SDS011;3803;51.666;7.630;2023-09-12T02:11:29;19.83;;;14.80;;
7523;SDS011;3803;51.666;7.630;2023-09-12T02:11:50;23.60;;;15.20;;
7523;SDS011;3803;51.666;7.630;2023-09-12T02:12:11;21.75;;;15.00;;
7523;SDS011;3803;51.666;7.630;2023-09-12T02:12:32;23.15;;;15.50;;
7523;SDS011;3803;51.666;7.630;2023-09-12T02:12:53;20.40;;;15.82;;
7523;SDS011;3803;51.666;7.630;2023-09-12T02:13:13;19.00;;;15.30;;
7523;SDS011;3803;51.666;7.630;2023-09-12T02:13:34;17.00;;;14.38;;
7523;SDS011;3803;51.666;7.630;2023-09-12T02:13:55;17.57;;;14.20;;
7523;SDS011;3803;51.666;7.630;2023-09-12T02:14:15;18.23;;;14.23;;
7523;SDS011;3803;51.666;7.630;2023-09-12T02:14:38;18.83;;;14.25;;
7523;SDS011;3803;51.666;7.630;2023-09-12T02:14:58;18.92;;;14.55;;
7523;SDS011;3803;51.666;7.630;2023-09-12T02:15:19;17.90;;;14.90;;
7523;SDS011;3803;51.666;7.630;2023-09-12T02:15:40;18.90;;;14.65;;
7523;SDS011;3803;51.666;7.630;2023-09-12T02:16:01;18.08;;;14.57;;
7523;SDS011;3803;51.666;7.630;2023-09-12T02:16:24;17.25;;;14.30;;
7523;SDS011;3803;51.666;7.630;2023-09-12T02:16:44;16.30;;;14.50;;
7523;SDS011;3803;51.666;7.630;2023-09-12T02:17:05;17.70;;;14.50;;
7523;SDS011;3803;51.666;7.630;2023-09-12T02:17:26;17.45;;;14.75;;
7523;SDS011;3803;51.666;7.630;2023-09-12T02:17:47;19.83;;;15.10;;
7523;SDS011;3803;51.666;7.630;2023-09-12T02:18:10;20.33;;;14.82;;
7523;SDS011;3803;51.666;7.630;2023-09-12T02:18:31;19.73;;;14.27;;
7523;SDS011;3803;51.666;7.630;2023-09-12T02:18:52;16.13;;;13.48;;
7523;SDS011;3803;51.666;7.630;2023-09-12T02:19:13;16.15;;;14.07;;
7523;SDS011;3803;51.666;7.630;2023-09-12T02:19:33;16.87;;;14.70;;
7523;SDS011;3803;51.666;7.630;2023-09-12T02:19:55;19.23;;;14.88;;
7523;SDS011;3803;51.666;7.630;2023-09-12T02:20:16;21.20;;;15.73;;
7523;SDS011;3803;51.666;7.630;2023-09-12T02:20:40;20.65;;;15.60;;
7523;SDS011;3803;51.666;7.630;2023-09-12T02:21:02;19.35;;;14.75;;